Time;durP1;ratioP1;P1;durP2;ratioP2;P2;SDS_P1;SDS_P2;PMS_P1;PMS_P2;Temp;Humidity;BMP_temperature;BMP_pressure;BME280_temperature;BME280_humidity;BME280_pressure;Samples;Min_cycle;Max_cycle;Signal;HPM_P1;HPM_P2
2022/04/10 00:01:29;;;;;;;3.17;2.87;;;;;;;5.57;100.00;100575.09;4947396;28;20209;-58
2022/04/10 00:03:56;;;;;;;5.03;3.70;;;;;;;5.55;100.00;100577.66;4948356;29;20203;-58
2022/04/10 00:06:22;;;;;;;3.70;3.37;;;;;;;5.53;100.00;100586.16;4943431;29;20199;-56
2022/04/10 00:08:48;;;;;;;3.73;3.20;;;;;;;5.51;100.00;100580.16;4948636;28;20552;-57
2022/04/10 00:11:13;;;;;;;4.20;3.23;;;;;;;5.51;100.00;100586.16;4950180;29;20913;-58
2022/04/10 00:13:38;;;;;;;3.93;3.53;;;;;;;5.51;100.00;100581.00;4948085;29;20210;-56
2022/04/10 00:16:04;;;;;;;3.70;3.30;;;;;;;5.45;100.00;100576.66;4948331;29;20277;-58
2022/04/10 00:18:31;;;;;;;3.70;3.07;;;;;;;5.38;100.00;100579.94;4947514;29;20198;-57
2022/04/10 00:20:56;;;;;;;4.23;3.20;;;;;;;5.33;100.00;100581.56;4944511;29;21425;-57
2022/04/10 00:23:22;;;;;;;5.23;3.40;;;;;;;5.27;100.00;100581.47;4947815;29;20218;-57
2022/04/10 00:25:47;;;;;;;4.07;3.30;;;;;;;5.21;100.00;100579.66;4945962;29;20194;-58
2022/04/10 00:28:12;;;;;;;3.97;3.37;;;;;;;5.15;100.00;100584.66;4943167;28;20338;-57
2022/04/10 00:30:38;;;;;;;3.63;3.20;;;;;;;5.10;100.00;100578.59;4948353;29;20179;-57
2022/04/10 00:33:03;;;;;;;4.83;3.43;;;;;;;5.01;100.00;100577.56;4947299;28;20686;-57
2022/04/10 00:35:28;;;;;;;4.53;3.30;;;;;;;4.93;100.00;100584.28;4951770;29;20269;-58
2022/04/10 00:37:54;;;;;;;3.50;3.20;;;;;;;4.86;100.00;100579.84;4949721;29;20282;-57
2022/04/10 00:40:19;;;;;;;3.43;3.13;;;;;;;4.81;100.00;100586.63;4949372;29;20203;-58
2022/04/10 00:42:49;;;;;;;3.90;3.23;;;;;;;4.76;100.00;100583.97;4955293;29;20690;-57
2022/04/10 00:45:16;;;;;;;3.73;3.20;;;;;;;4.71;100.00;100595.81;4950902;29;20553;-57
2022/04/10 00:47:44;;;;;;;3.40;3.10;;;;;;;4.67;100.00;100591.47;4946944;28;20194;-58
2022/04/10 00:50:10;;;;;;;4.17;3.10;;;;;;;4.59;100.00;100588.75;4951983;28;20565;-57
2022/04/10 00:52:36;;;;;;;3.90;3.17;;;;;;;4.53;100.00;100591.19;4945486;29;20230;-57
2022/04/10 00:55:02;;;;;;;3.77;3.10;;;;;;;4.48;100.00;100592.78;4948976;29;20202;-57
2022/04/10 00:57:28;;;;;;;3.87;3.13;;;;;;;4.41;100.00;100591.78;4948865;29;20282;-57
2022/04/10 00:59:53;;;;;;;4.00;3.27;;;;;;;4.37;100.00;100590.88;4947187;28;20357;-57
2022/04/10 01:02:19;;;;;;;4.27;2.90;;;;;;;4.33;100.00;100590.75;4951167;29;20234;-57
2022/04/10 01:04:46;;;;;;;4.73;3.60;;;;;;;4.25;100.00;100591.47;4945639;29;20220;-57
2022/04/10 01:07:13;;;;;;;4.13;3.40;;;;;;;4.19;100.00;100593.03;4951938;28;20218;-58
2022/04/10 01:09:39;;;;;;;4.00;3.60;;;;;;;4.16;100.00;100600.63;4950179;29;20194;-57
2022/04/10 01:12:07;;;;;;;4.13;3.83;;;;;;;4.07;100.00;100603.84;4949289;28;20582;-58
2022/04/10 01:14:32;;;;;;;3.87;3.47;;;;;;;4.00;100.00;100610.53;4952269;29;20199;-58
2022/04/10 01:16:58;;;;;;;4.57;3.60;;;;;;;3.91;100.00;100607.78;4949944;28;20250;-57
2022/04/10 01:19:23;;;;;;;4.13;3.77;;;;;;;3.83;100.00;100607.59;4951908;29;20206;-57
2022/04/10 01:21:50;;;;;;;3.90;3.37;;;;;;;3.76;100.00;100609.13;4952321;28;20211;-58
2022/04/10 01:24:15;;;;;;;4.47;3.80;;;;;;;3.69;100.00;100603.84;4949981;29;20192;-57
2022/04/10 01:26:42;;;;;;;3.77;3.47;;;;;;;3.63;100.00;100599.44;4945476;28;20561;-57
2022/04/10 01:29:10;;;;;;;4.53;3.37;;;;;;;3.57;100.00;100609.50;4950784;28;20202;-58
2022/04/10 01:31:37;;;;;;;3.83;3.37;;;;;;;3.50;100.00;100613.63;4951505;28;20183;-57
2022/04/10 01:34:06;;;;;;;4.30;3.33;;;;;;;3.45;100.00;100617.75;4949083;28;20269;-57
2022/04/10 01:36:33;;;;;;;4.33;3.80;;;;;;;3.38;100.00;100619.28;4945432;29;20247;-58
2022/04/10 01:39:00;;;;;;;3.90;3.47;;;;;;;3.35;100.00;100619.19;4949608;29;20570;-59
2022/04/10 01:41:27;;;;;;;3.77;3.40;;;;;;;3.30;100.00;100619.06;4952291;28;20242;-58
2022/04/10 01:43:55;;;;;;;4.03;3.50;;;;;;;3.24;100.00;100611.25;4952602;29;20578;-57
2022/04/10 01:46:26;;;;;;;4.97;3.77;;;;;;;3.22;100.00;100619.69;4960610;28;20200;-57
2022/04/10 01:48:51;;;;;;;4.07;3.67;;;;;;;3.17;100.00;100620.47;4949641;28;20175;-57
2022/04/10 01:51:17;;;;;;;3.70;3.40;;;;;;;3.17;100.00;100627.25;4951334;28;20209;-57
2022/04/10 01:53:43;;;;;;;3.80;3.20;;;;;;;3.18;100.00;100631.53;4951846;29;20223;-57
2022/04/10 01:56:09;;;;;;;3.80;3.40;;;;;;;3.21;100.00;100623.97;4952193;29;20191;-59
2022/04/10 01:58:37;;;;;;;3.73;3.17;;;;;;;3.26;100.00;100621.53;4948400;29;20652;-57
2022/04/10 02:01:03;;;;;;;3.57;3.27;;;;;;;3.31;100.00;100617.41;4939001;29;20191;-57
2022/04/10 02:03:29;;;;;;;3.80;3.40;;;;;;;3.37;100.00;100617.53;4949566;29;20213;-58
2022/04/10 02:05:55;;;;;;;4.67;3.40;;;;;;;3.43;100.00;100615.16;4952833;29;20617;-57
2022/04/10 02:08:21;;;;;;;4.00;3.30;;;;;;;3.49;100.00;100614.44;4944615;29;20187;-58
2022/04/10 02:10:46;;;;;;;4.30;3.63;;;;;;;3.55;100.00;100606.94;4945735;28;20557;-58
2022/04/10 02:13:12;;;;;;;4.20;3.80;;;;;;;3.58;100.00;100604.41;4942886;28;20206;-57
2022/04/10 02:15:38;;;;;;;4.10;3.70;;;;;;;3.61;100.00;100609.63;4950676;29;20202;-58
2022/04/10 02:18:04;;;;;;;4.50;3.73;;;;;;;3.61;100.00;100598.53;4948290;29;20194;-58
2022/04/10 02:20:30;;;;;;;4.63;3.80;;;;;;;3.63;100.00;100604.56;4946442;29;20297;-58
2022/04/10 02:22:55;;;;;;;3.40;3.10;;;;;;;3.62;100.00;100597.69;4951061;29;20226;-58
2022/04/10 02:25:20;;;;;;;3.70;3.40;;;;;;;3.58;100.00;100594.19;4947383;29;20199;-57
2022/04/10 02:27:46;;;;;;;3.90;3.50;;;;;;;3.52;100.00;100601.72;4948474;29;20632;-58
2022/04/10 02:30:12;;;;;;;3.57;3.23;;;;;;;3.44;100.00;100588.75;4947091;29;20632;-56
2022/04/10 02:32:41;;;;;;;4.10;3.50;;;;;;;3.38;100.00;100595.41;4950647;29;20202;-57
2022/04/10 02:35:08;;;;;;;3.70;3.40;;;;;;;3.28;100.00;100591.72;4949213;28;20190;-57
2022/04/10 02:37:34;;;;;;;3.70;3.40;;;;;;;3.20;100.00;100596.66;4944020;28;20577;-57
2022/04/10 02:39:59;;;;;;;3.77;3.47;;;;;;;3.15;100.00;100600.75;4948230;28;20207;-57
2022/04/10 02:42:25;;;;;;;4.17;3.77;;;;;;;3.10;100.00;100600.66;4948867;29;20206;-58
2022/04/10 02:44:50;;;;;;;5.17;3.80;;;;;;;3.07;100.00;100602.28;4949406;29;20198;-58
2022/04/10 02:47:15;;;;;;;4.50;3.80;;;;;;;3.06;100.00;100598.81;4948133;28;20211;-58
2022/04/10 02:49:41;;;;;;;3.67;3.10;;;;;;;3.07;100.00;100604.81;4946940;29;20186;-58
2022/04/10 02:52:07;;;;;;;4.30;3.77;;;;;;;3.05;100.00;100607.31;4951715;28;20693;-57
2022/04/10 02:54:32;;;;;;;3.57;3.27;;;;;;;3.03;100.00;100617.53;4945539;29;21280;-61
2022/04/10 02:56:57;;;;;;;4.10;3.30;;;;;;;3.01;100.00;100616.59;4946562;29;20195;-59
2022/04/10 02:59:23;;;;;;;3.90;3.50;;;;;;;2.98;100.00;100613.13;4951418;29;20233;-58
2022/04/10 03:01:50;;;;;;;3.87;3.53;;;;;;;2.94;100.00;100608.72;4951557;29;20296;-57
2022/04/10 03:04:18;;;;;;;4.17;3.67;;;;;;;2.88;100.00;100606.88;4950128;28;20215;-57
2022/04/10 03:06:44;;;;;;;4.43;3.50;;;;;;;2.84;100.00;100607.59;4950120;29;20273;-57
2022/04/10 03:09:09;;;;;;;4.27;3.87;;;;;;;2.80;100.00;100610.91;4951446;29;20273;-57
2022/04/10 03:11:34;;;;;;;3.73;3.43;;;;;;;2.75;100.00;100610.75;4950226;28;20225;-58
2022/04/10 03:14:00;;;;;;;3.73;3.43;;;;;;;2.71;100.00;100616.63;4944287;28;20187;-57
2022/04/10 03:16:25;;;;;;;4.23;3.63;;;;;;;2.66;100.00;100620.75;4943608;29;20208;-58
2022/04/10 03:18:51;;;;;;;4.17;3.77;;;;;;;2.65;100.00;100619.00;4949908;29;20693;-57
2022/04/10 03:21:17;;;;;;;5.57;3.60;;;;;;;2.61;100.00;100630.84;4948683;28;20187;-57
2022/04/10 03:23:43;;;;;;;4.00;3.60;;;;;;;2.61;100.00;100632.50;4949393;28;20210;-57
2022/04/10 03:26:08;;;;;;;3.93;3.63;;;;;;;2.59;100.00;100633.31;4944970;29;20735;-58
2022/04/10 03:28:34;;;;;;;4.70;4.20;;;;;;;2.62;100.00;100631.69;4944210;29;20190;-57
2022/04/10 03:30:59;;;;;;;4.47;3.77;;;;;;;2.65;100.00;100631.78;4944769;28;20194;-57
2022/04/10 03:33:24;;;;;;;4.40;4.00;;;;;;;2.68;100.00;100642.94;4946665;28;20710;-57
2022/04/10 03:35:50;;;;;;;4.43;4.03;;;;;;;2.72;100.00;100643.94;4939862;28;20659;-57
2022/04/10 03:38:16;;;;;;;5.73;4.20;;;;;;;2.77;100.00;100646.63;4946100;28;20191;-58
2022/04/10 03:40:41;;;;;;;4.50;4.10;;;;;;;2.81;100.00;100651.84;4946917;29;20218;-57
2022/04/10 03:43:06;;;;;;;4.20;3.80;;;;;;;2.87;100.00;100651.16;4945292;29;20202;-56
2022/04/10 03:45:32;;;;;;;4.67;4.17;;;;;;;2.94;100.00;100647.97;4945097;29;20183;-57
2022/04/10 03:47:58;;;;;;;4.63;3.90;;;;;;;3.00;100.00;100653.22;4945733;29;20647;-57
2022/04/10 03:50:23;;;;;;;4.50;4.10;;;;;;;3.06;100.00;100649.97;4943328;29;20185;-57
2022/04/10 03:52:49;;;;;;;4.40;4.00;;;;;;;3.10;100.00;100649.25;4946486;29;20222;-57
2022/04/10 03:55:14;;;;;;;5.27;4.20;;;;;;;3.16;100.00;100654.53;4942754;29;20194;-57
2022/04/10 03:57:40;;;;;;;5.17;4.30;;;;;;;3.22;100.00;100655.50;4956424;28;20182;-56
2022/04/10 04:00:06;;;;;;;5.73;3.97;;;;;;;3.25;100.00;100653.91;4952667;29;20242;-58
2022/04/10 04:02:31;;;;;;;4.00;3.60;;;;;;;3.31;100.00;100661.75;4936132;29;20208;-56
2022/04/10 04:04:57;;;;;;;6.13;3.93;;;;;;;3.35;100.00;100660.13;4946014;29;20190;-58
2022/04/10 04:07:22;;;;;;;4.63;3.70;;;;;;;3.39;100.00;100669.63;4958002;28;20186;-58
2022/04/10 04:09:47;;;;;;;4.90;4.00;;;;;;;3.42;100.00;100666.25;4951980;29;20241;-56
2022/04/10 04:12:13;;;;;;;5.30;4.00;;;;;;;3.44;100.00;100660.38;4951682;29;20567;-56
2022/04/10 04:14:39;;;;;;;4.23;3.83;;;;;;;3.48;100.00;100664.72;4952681;29;20175;-57
2022/04/10 04:17:05;;;;;;;4.20;3.80;;;;;;;3.48;100.00;100659.63;4950321;29;20186;-56
2022/04/10 04:19:30;;;;;;;4.47;4.07;;;;;;;3.49;100.00;100663.91;4949187;29;20687;-58
2022/04/10 04:21:55;;;;;;;4.10;3.80;;;;;;;3.51;100.00;100674.19;4950491;28;20214;-57
2022/04/10 04:24:21;;;;;;;4.37;3.97;;;;;;;3.51;100.00;100682.72;4949426;29;20663;-57
2022/04/10 04:26:46;;;;;;;4.33;3.90;;;;;;;3.53;100.00;100681.91;4946994;29;20206;-58
2022/04/10 04:29:12;;;;;;;4.57;3.77;;;;;;;3.55;100.00;100688.81;4948648;29;20567;-57
2022/04/10 04:31:37;;;;;;;4.30;3.50;;;;;;;3.55;100.00;100698.16;4950616;29;20186;-56
2022/04/10 04:34:03;;;;;;;4.03;3.47;;;;;;;3.56;100.00;100703.31;4954614;28;20314;-57
2022/04/10 04:36:28;;;;;;;4.07;3.63;;;;;;;3.55;100.00;100698.16;4946404;29;20293;-57
2022/04/10 04:38:56;;;;;;;4.47;3.97;;;;;;;3.57;100.00;100699.09;4944648;28;20744;-57
2022/04/10 04:41:22;;;;;;;4.53;4.13;;;;;;;3.54;100.00;100699.00;4950425;28;20345;-57
2022/04/10 04:43:47;;;;;;;4.60;3.90;;;;;;;3.53;100.00;100700.69;4952053;29;20262;-57
2022/04/10 04:46:13;;;;;;;4.27;3.87;;;;;;;3.53;100.00;100705.81;4951846;29;20281;-57
2022/04/10 04:48:38;;;;;;;4.60;4.10;;;;;;;3.52;100.00;100709.19;4951479;29;20179;-57
2022/04/10 04:51:03;;;;;;;6.00;4.37;;;;;;;3.50;100.00;100706.59;4949892;28;20220;-57
2022/04/10 04:53:29;;;;;;;4.90;3.77;;;;;;;3.50;100.00;100713.41;4947886;29;20210;-57
2022/04/10 04:55:54;;;;;;;4.50;4.10;;;;;;;3.50;100.00;100718.53;4946383;28;20195;-57
2022/04/10 04:58:19;;;;;;;5.33;4.40;;;;;;;3.50;100.00;100719.38;4948020;29;20193;-58
2022/04/10 05:00:45;;;;;;;6.40;4.63;;;;;;;3.53;100.00;100722.84;4933911;29;20207;-58
2022/04/10 05:03:10;;;;;;;6.93;4.67;;;;;;;3.54;100.00;100732.25;4952663;28;20238;-57
2022/04/10 05:05:36;;;;;;;4.47;4.07;;;;;;;3.55;100.00;100728.88;4955578;28;20175;-57
2022/04/10 05:08:03;;;;;;;4.13;3.80;;;;;;;3.59;100.00;100740.94;4957219;28;20187;-57
2022/04/10 05:10:29;;;;;;;4.07;3.67;;;;;;;3.63;100.00;100740.22;4946852;29;20179;-57
2022/04/10 05:12:54;;;;;;;4.43;4.03;;;;;;;3.69;100.00;100731.81;4940246;29;20221;-57
2022/04/10 05:15:20;;;;;;;4.67;4.27;;;;;;;3.73;100.00;100729.38;4952371;28;20187;-57
2022/04/10 05:17:45;;;;;;;4.83;4.37;;;;;;;3.78;100.00;100730.34;4954583;29;20194;-56
2022/04/10 05:20:11;;;;;;;5.97;4.53;;;;;;;3.84;100.00;100736.47;4952316;29;20368;-56
2022/04/10 05:22:36;;;;;;;5.77;4.40;;;;;;;3.89;100.00;100740.00;4955180;28;20215;-57
2022/04/10 05:25:01;;;;;;;4.40;3.97;;;;;;;3.97;100.00;100741.06;4950053;29;20562;-57
2022/04/10 05:27:27;;;;;;;4.50;3.80;;;;;;;4.03;100.00;100743.78;4951273;29;20198;-57
2022/04/10 05:29:52;;;;;;;4.37;3.97;;;;;;;4.10;100.00;100737.97;4950062;28;20195;-57
2022/04/10 05:32:18;;;;;;;6.97;6.47;;;;;;;4.16;100.00;100744.94;4948199;28;20211;-58
2022/04/10 05:34:43;;;;;;;8.53;7.83;;;;;;;4.24;100.00;100747.69;4953837;28;20198;-57
2022/04/10 05:37:09;;;;;;;8.03;7.33;;;;;;;4.33;100.00;100740.25;4948674;28;20197;-59
2022/04/10 05:39:34;;;;;;;8.43;7.73;;;;;;;4.47;100.00;100743.13;4945468;29;20289;-58
2022/04/10 05:42:00;;;;;;;6.60;6.10;;;;;;;4.64;100.00;100761.47;4950483;28;20210;-58
2022/04/10 05:44:25;;;;;;;6.03;5.53;;;;;;;4.74;100.00;100770.25;4949593;28;20207;-57
2022/04/10 05:46:50;;;;;;;7.30;6.60;;;;;;;4.81;100.00;100776.38;4949158;28;20191;-56
2022/04/10 05:49:16;;;;;;;7.30;6.60;;;;;;;4.86;100.00;100780.78;4952117;28;20183;-57
2022/04/10 05:51:41;;;;;;;7.13;6.43;;;;;;;4.92;100.00;100780.03;4950233;29;20273;-57
2022/04/10 05:54:09;;;;;;;7.63;6.67;;;;;;;4.97;100.00;100781.03;4946676;28;20305;-57
2022/04/10 05:56:37;;;;;;;7.57;6.83;;;;;;;5.02;100.00;100784.53;4946737;28;20242;-57
2022/04/10 05:59:03;;;;;;;10.80;9.70;;;;;;;5.07;100.00;100786.34;4948503;29;20202;-58
2022/04/10 06:01:28;;;;;;;8.03;7.23;;;;;;;5.13;100.00;100787.34;4946234;28;20746;-57
2022/04/10 06:03:53;;;;;;;6.67;5.97;;;;;;;5.17;100.00;100788.25;4952928;28;20281;-57
2022/04/10 06:06:19;;;;;;;9.00;7.63;;;;;;;5.22;100.00;100790.94;4941643;28;20194;-57
2022/04/10 06:08:44;;;;;;;11.83;10.60;;;;;;;5.28;100.00;100794.50;4950303;28;20191;-57
2022/04/10 06:11:09;;;;;;;10.30;9.27;;;;;;;5.32;100.00;100791.16;4959082;28;20194;-57
2022/04/10 06:13:35;;;;;;;8.70;7.83;;;;;;;5.38;100.00;100797.25;4949061;29;20208;-57
2022/04/10 06:16:00;;;;;;;18.80;15.30;;;;;;;5.45;100.00;100801.66;4951142;28;20218;-58
2022/04/10 06:18:26;;;;;;;43.83;30.07;;;;;;;5.52;100.00;100797.53;4944576;28;20287;-58
2022/04/10 06:20:51;;;;;;;45.63;34.37;;;;;;;5.62;100.00;100797.72;4947689;29;20253;-58
2022/04/10 06:23:16;;;;;;;31.27;24.23;;;;;;;5.77;100.00;100802.31;4949395;29;20238;-58
2022/04/10 06:25:42;;;;;;;20.33;17.13;;;;;;;5.95;100.00;100793.22;4953048;29;20649;-58
2022/04/10 06:28:08;;;;;;;15.13;12.23;;;;;;;6.14;100.00;100791.88;4945941;28;20667;-57
2022/04/10 06:30:34;;;;;;;9.20;8.23;;;;;;;6.34;100.00;100791.34;4952797;29;20178;-59
2022/04/10 06:32:59;;;;;;;6.77;6.17;;;;;;;6.50;100.00;100792.44;4950093;29;20222;-57
2022/04/10 06:35:24;;;;;;;6.80;5.77;;;;;;;6.69;100.00;100798.72;4949823;29;20188;-58
2022/04/10 06:37:50;;;;;;;5.90;5.30;;;;;;;6.85;100.00;100790.41;4951841;29;20727;-58
2022/04/10 06:40:17;;;;;;;4.93;4.50;;;;;;;7.01;100.00;100786.34;4952099;29;20219;-58
2022/04/10 06:42:42;;;;;;;6.17;4.70;;;;;;;7.19;100.00;100795.16;4952485;28;20275;-57
2022/04/10 06:45:08;;;;;;;4.90;4.47;;;;;;;7.38;100.00;100796.28;4952945;29;20203;-57
2022/04/10 06:47:33;;;;;;;4.90;4.40;;;;;;;7.53;99.34;100799.88;4951045;29;20198;-58
2022/04/10 06:49:59;;;;;;;4.60;4.20;;;;;;;7.63;99.24;100793.97;4952698;28;20206;-57
2022/04/10 06:52:24;;;;;;;4.70;4.23;;;;;;;7.71;98.70;100800.09;4949671;28;20214;-58
2022/04/10 06:54:50;;;;;;;4.63;4.20;;;;;;;7.76;98.48;100800.13;4946339;29;20263;-58
2022/04/10 06:57:15;;;;;;;4.60;4.10;;;;;;;7.87;98.41;100806.25;4944253;28;20200;-58
2022/04/10 06:59:41;;;;;;;3.87;3.57;;;;;;;8.06;97.75;100806.44;4941008;29;20291;-57
2022/04/10 07:02:06;;;;;;;5.77;5.00;;;;;;;8.40;96.57;100806.72;4946021;28;20378;-58
2022/04/10 07:04:33;;;;;;;5.60;5.07;;;;;;;8.69;95.55;100809.59;4946747;28;20209;-57
2022/04/10 07:06:59;;;;;;;9.00;8.00;;;;;;;9.26;93.60;100809.06;4948273;28;20563;-58
2022/04/10 07:09:24;;;;;;;8.23;7.53;;;;;;;9.96;90.92;100814.47;4944109;28;20249;-58
2022/04/10 07:11:49;;;;;;;6.20;5.07;;;;;;;10.55;86.61;100809.38;4950614;28;20212;-58
2022/04/10 07:14:14;;;;;;;4.67;4.27;;;;;;;11.07;85.13;100802.41;4949419;28;20203;-58
2022/04/10 07:16:40;;;;;;;4.10;3.70;;;;;;;11.54;84.60;100796.19;4947699;28;20196;-58
2022/04/10 07:19:06;;;;;;;4.00;3.60;;;;;;;11.79;80.59;100800.38;4948231;28;20211;-57
2022/04/10 07:24:15;;;;;;;5.30;3.93;;;;;;;11.75;81.32;100804.69;4947927;28;20193;-58
2022/04/10 07:26:41;;;;;;;4.33;3.67;;;;;;;11.69;80.73;100804.75;4944424;28;20857;-58
2022/04/10 07:29:10;;;;;;;4.00;3.33;;;;;;;11.65;81.26;100813.41;4948009;28;20187;-58
2022/04/10 07:31:35;;;;;;;4.17;3.23;;;;;;;11.57;81.95;100806.50;4945312;28;20793;-58
2022/04/10 07:34:01;;;;;;;3.80;3.30;;;;;;;11.42;81.49;100814.34;4945729;28;20206;-58
2022/04/10 07:36:26;;;;;;;3.27;2.93;;;;;;;11.27;82.18;100818.72;4951456;28;20198;-57
2022/04/10 07:38:52;;;;;;;3.67;3.37;;;;;;;11.25;81.93;100823.06;4946070;28;20190;-57
2022/04/10 07:41:17;;;;;;;4.67;3.27;;;;;;;11.10;81.52;100828.28;4947592;28;20563;-57
2022/04/10 07:43:42;;;;;;;3.77;3.30;;;;;;;10.81;82.67;100826.63;4946452;28;20584;-57
2022/04/10 07:48:51;;;;;;;3.30;3.03;;;;;;;10.70;83.19;100821.44;4944414;28;20206;-57
2022/04/10 07:51:17;;;;;;;3.60;3.30;;;;;;;10.61;83.36;100808.50;4952082;28;20397;-57
2022/04/10 07:53:42;;;;;;;3.43;3.13;;;;;;;10.59;83.74;100825.78;4945454;29;20203;-58
2022/04/10 07:56:08;;;;;;;4.87;3.60;;;;;;;10.69;82.28;100835.25;4951916;28;20197;-57
2022/04/10 07:58:33;;;;;;;4.33;3.80;;;;;;;10.63;82.51;100830.94;4948315;29;20635;-57
2022/04/10 08:00:58;;;;;;;5.93;4.30;;;;;;;10.74;82.23;100828.31;4944840;28;20222;-57
2022/04/10 08:03:24;;;;;;;3.50;3.20;;;;;;;10.88;82.80;100820.56;4950156;28;20217;-58
2022/04/10 08:05:50;;;;;;;3.67;3.37;;;;;;;11.06;82.23;100824.81;4945060;28;20194;-56
2022/04/10 08:08:15;;;;;;;3.10;2.90;;;;;;;11.15;82.41;100821.34;4945858;29;20195;-57
2022/04/10 08:10:40;;;;;;;4.30;3.47;;;;;;;11.32;82.06;100828.22;4946227;29;20269;-57
2022/04/10 08:13:06;;;;;;;4.57;3.30;;;;;;;11.39;82.31;100830.78;4947047;29;20242;-57
2022/04/10 08:15:31;;;;;;;4.77;3.50;;;;;;;11.49;81.67;100823.00;4947055;28;20329;-57
2022/04/10 08:17:57;;;;;;;3.70;3.40;;;;;;;11.52;81.72;100831.59;4944543;28;20198;-58
2022/04/10 08:20:23;;;;;;;3.77;3.33;;;;;;;11.55;81.43;100836.78;4959380;28;20214;-56
2022/04/10 08:22:50;;;;;;;3.87;3.40;;;;;;;11.64;80.84;100832.41;4953864;28;20570;-58
2022/04/10 08:25:18;;;;;;;4.27;3.37;;;;;;;11.78;80.19;100833.22;4945059;29;20215;-58
2022/04/10 08:27:43;;;;;;;3.93;3.63;;;;;;;11.97;78.98;100844.34;4945147;28;20190;-58
2022/04/10 08:30:09;;;;;;;3.83;3.33;;;;;;;12.04;77.05;100835.69;4945272;29;20198;-57
2022/04/10 08:32:39;;;;;;;4.50;3.23;;;;;;;11.98;78.15;100843.50;4946604;29;20355;-58
2022/04/10 08:35:07;;;;;;;4.10;3.70;;;;;;;11.97;77.71;100846.06;4950711;29;20548;-57
2022/04/10 08:37:33;;;;;;;4.50;3.60;;;;;;;11.87;77.42;100847.84;4957085;28;20617;-58
2022/04/10 08:40:23;;;;;;;4.30;3.57;;;;;;;11.71;77.95;100852.28;4950298;28;20216;-57
2022/04/10 08:42:49;;;;;;;3.70;3.40;;;;;;;11.72;78.73;100854.00;4951128;28;20214;-57
2022/04/10 08:45:16;;;;;;;3.37;3.07;;;;;;;11.83;78.24;100848.72;4947085;28;20314;-57
2022/04/10 08:47:42;;;;;;;3.90;3.00;;;;;;;12.04;78.90;100853.84;4945010;28;20560;-58
2022/04/10 08:50:09;;;;;;;5.13;3.40;;;;;;;12.30;78.93;100857.16;4943610;28;20606;-56
2022/04/10 08:52:35;;;;;;;4.30;3.70;;;;;;;12.64;76.99;100849.97;4948200;29;20211;-57
2022/04/10 08:55:01;;;;;;;4.43;3.50;;;;;;;12.96;76.28;100858.31;4946777;29;20281;-57
2022/04/10 08:57:26;;;;;;;4.47;4.07;;;;;;;13.29;75.33;100855.41;4948113;29;20275;-57
2022/04/10 08:59:57;;;;;;;3.87;3.47;;;;;;;13.29;74.90;100856.25;4944870;28;21240;-56
2022/04/10 09:02:22;;;;;;;3.50;3.17;;;;;;;13.32;75.63;100861.44;4948722;29;20230;-57
2022/04/10 09:04:48;;;;;;;3.30;3.00;;;;;;;13.43;75.32;100853.53;4947732;28;20245;-57
2022/04/10 09:07:13;;;;;;;3.17;2.77;;;;;;;13.65;74.66;100856.75;4950161;28;20198;-57
2022/04/10 09:09:52;;;;;;;4.93;3.80;;;;;;;13.80;73.29;100855.66;4948424;28;20227;-56
2022/04/10 09:12:18;;;;;;;4.17;3.60;;;;;;;13.90;72.37;100865.97;4951758;28;20221;-57
2022/04/10 09:14:43;;;;;;;3.93;3.53;;;;;;;13.87;72.06;100862.53;4949147;28;20184;-57
2022/04/10 09:17:29;;;;;;;7.83;3.90;;;;;;;13.99;71.34;100866.69;4947233;28;20475;-57
2022/04/10 09:19:56;;;;;;;3.80;3.50;;;;;;;13.92;72.18;100865.06;4948052;28;20222;-59
2022/04/10 09:22:36;;;;;;;4.57;4.10;;;;;;;13.96;71.40;100868.47;4949429;28;20221;-58
2022/04/10 09:25:13;;;;;;;3.63;3.33;;;;;;;13.77;71.45;100863.50;4952252;28;20190;-58
2022/04/10 09:27:44;;;;;;;3.77;3.47;;;;;;;13.65;72.04;100859.34;4958070;28;20205;-58
2022/04/10 09:30:14;;;;;;;3.47;3.10;;;;;;;13.58;71.40;100868.09;4946405;28;20196;-57
2022/04/10 09:32:51;;;;;;;4.83;3.40;;;;;;;13.82;72.16;100860.88;4947991;28;20594;-57
2022/04/10 09:35:27;;;;;;;3.40;3.10;;;;;;;14.03;71.87;100867.53;4951432;28;20259;-57
2022/04/10 09:37:57;;;;;;;13.20;3.37;;;;;;;14.24;71.14;100863.75;4947517;28;20293;-57
2022/04/10 09:40:33;;;;;;;3.93;3.07;;;;;;;14.16;70.32;100857.78;4969317;28;20770;-56
2022/04/10 09:43:07;;;;;;;3.77;3.00;;;;;;;14.09;70.64;100864.81;4950037;28;20208;-58
2022/04/10 09:45:46;;;;;;;3.60;2.67;;;;;;;14.09;71.01;100853.56;4950987;28;20832;-56
2022/04/10 09:48:26;;;;;;;4.83;3.53;;;;;;;14.22;70.20;100851.63;4946834;28;20193;-57
2022/04/10 09:51:02;;;;;;;3.73;2.93;;;;;;;14.44;70.63;100847.81;4946276;28;20239;-58
2022/04/10 09:53:29;;;;;;;2.70;2.50;;;;;;;14.81;70.39;100841.16;4946753;28;20249;-57
2022/04/10 09:55:58;;;;;;;4.60;3.00;;;;;;;15.20;69.63;100848.25;4951220;28;20193;-59
2022/04/10 09:58:25;;;;;;;2.73;2.53;;;;;;;15.55;69.88;100842.34;4945998;28;20188;-57
2022/04/10 10:00:54;;;;;;;3.23;2.60;;;;;;;15.74;69.05;100843.69;4946149;28;20225;-57
2022/04/10 10:03:21;;;;;;;4.40;2.90;;;;;;;15.83;68.61;100833.91;4949066;28;20219;-57
2022/04/10 10:05:49;;;;;;;2.97;2.60;;;;;;;15.72;68.31;100838.50;4950913;28;20201;-58
2022/04/10 10:08:17;;;;;;;3.87;3.00;;;;;;;15.59;66.93;100827.47;4948530;28;20220;-57
2022/04/10 10:10:42;;;;;;;3.93;2.87;;;;;;;15.27;67.38;100826.41;4947355;28;20384;-57
2022/04/10 10:13:08;;;;;;;2.80;2.60;;;;;;;14.99;68.61;100826.91;4945157;28;20453;-58
2022/04/10 10:15:37;;;;;;;3.10;2.80;;;;;;;14.71;67.61;100827.41;4941520;29;20210;-58
2022/04/10 10:18:07;;;;;;;2.87;2.27;;;;;;;14.40;67.93;100829.66;4945612;28;20282;-56
2022/04/10 10:20:34;;;;;;;2.90;2.70;;;;;;;14.16;68.63;100832.63;4938583;28;20576;-61
2022/04/10 10:23:04;;;;;;;2.77;2.57;;;;;;;14.00;68.98;100836.31;4938004;28;20225;-59
2022/04/10 10:25:41;;;;;;;3.00;2.70;;;;;;;13.86;67.68;100828.69;4946122;28;20195;-56
2022/04/10 10:28:56;;;;;;;4.00;3.50;;;;;;;13.60;68.33;100834.28;4948388;28;20206;-58
2022/04/10 10:31:43;;;;;;;3.37;2.90;;;;;;;13.50;69.02;100830.94;4955243;28;20211;-57
2022/04/10 10:34:10;;;;;;;3.17;2.60;;;;;;;13.42;69.60;100825.81;4953181;28;20245;-57
2022/04/10 10:36:36;;;;;;;3.27;2.93;;;;;;;13.33;69.41;100828.47;4953306;28;20577;-57
2022/04/10 10:39:04;;;;;;;3.43;3.13;;;;;;;13.23;69.85;100827.75;4949535;28;20202;-57
2022/04/10 10:41:32;;;;;;;3.37;3.07;;;;;;;13.16;70.01;100823.47;4947043;28;20207;-57
2022/04/10 10:43:58;;;;;;;4.03;2.70;;;;;;;13.22;70.21;100826.03;4950169;28;20193;-57
2022/04/10 10:46:34;;;;;;;3.07;2.77;;;;;;;13.40;70.18;100823.22;4943506;28;20200;-58
2022/04/10 10:49:20;;;;;;;3.13;2.80;;;;;;;13.65;69.40;100814.25;4962771;28;20196;-57
2022/04/10 10:51:54;;;;;;;3.13;2.70;;;;;;;13.92;69.24;100814.75;4945706;28;20215;-57
2022/04/10 10:54:32;;;;;;;5.30;3.57;;;;;;;14.18;68.20;100812.63;4950502;28;21028;-57
2022/04/10 10:56:57;;;;;;;5.30;3.20;;;;;;;14.36;66.43;100810.63;4945174;28;20232;-58
2022/04/10 10:59:43;;;;;;;3.90;3.03;;;;;;;14.47;66.48;100808.69;4946918;28;20646;-57
2022/04/10 11:02:26;;;;;;;4.07;3.27;;;;;;;14.67;66.28;100807.47;4946124;28;20609;-58
2022/04/10 11:04:52;;;;;;;3.90;3.40;;;;;;;14.83;65.99;100802.03;4948223;28;20193;-58
2022/04/10 11:07:17;;;;;;;4.30;3.13;;;;;;;14.94;65.18;100792.28;4946218;28;20720;-57
2022/04/10 11:10:07;;;;;;;3.50;3.07;;;;;;;14.93;64.83;100785.34;4946659;28;20273;-57
2022/04/10 11:12:46;;;;;;;4.33;3.10;;;;;;;14.81;64.60;100801.22;4948522;28;20211;-58
2022/04/10 11:15:15;;;;;;;4.67;2.80;;;;;;;14.60;65.68;100791.09;4946980;28;20190;-57
2022/04/10 11:17:41;;;;;;;3.63;2.77;;;;;;;14.44;66.38;100803.53;4946534;28;20643;-58
2022/04/10 11:20:09;;;;;;;2.97;2.60;;;;;;;14.27;66.22;100793.41;4946800;28;20297;-58
2022/04/10 11:22:46;;;;;;;3.30;2.90;;;;;;;14.12;66.31;100791.06;4946982;28;20350;-57
2022/04/10 11:25:12;;;;;;;3.93;3.20;;;;;;;14.04;64.97;100788.56;4950148;28;20188;-58
2022/04/10 11:27:57;;;;;;;3.77;3.13;;;;;;;13.89;65.33;100786.19;4946254;28;20194;-57
2022/04/10 11:30:24;;;;;;;3.30;3.00;;;;;;;13.82;65.99;100786.28;4946016;28;20180;-57